sensor_id;sensor_type;location;lat;lon;timestamp;pressure;altitude;pressure_sealevel;temperature;humidity
23321;BME280;33376;51.306;4.752;2023-02-15T00:01:05;102896.78;;;1.71;100.00
23321;BME280;33376;51.306;4.752;2023-02-15T00:03:30;102884.44;;;1.61;100.00
23321;BME280;33376;51.306;4.752;2023-02-15T00:05:56;102885.09;;;1.46;100.00
23321;BME280;33376;51.306;4.752;2023-02-15T00:08:21;102883.28;;;1.44;100.00
23321;BME280;33376;51.306;4.752;2023-02-15T00:10:47;102875.53;;;1.50;100.00
23321;BME280;33376;51.306;4.752;2023-02-15T00:13:12;102885.06;;;1.45;100.00
23321;BME280;33376;51.306;4.752;2023-02-15T00:15:38;102872.84;;;1.44;100.00
23321;BME280;33376;51.306;4.752;2023-02-15T00:18:03;102866.81;;;1.48;100.00
23321;BME280;33376;51.306;4.752;2023-02-15T00:20:28;102861.53;;;1.43;100.00
23321;BME280;33376;51.306;4.752;2023-02-15T00:22:53;102865.66;;;1.31;100.00
23321;BME280;33376;51.306;4.752;2023-02-15T00:25:19;102859.72;;;1.39;100.00
23321;BME280;33376;51.306;4.752;2023-02-15T00:27:44;102850.97;;;1.39;100.00
23321;BME280;33376;51.306;4.752;2023-02-15T00:30:09;102781.31;;;1.39;100.00
23321;BME280;33376;51.306;4.752;2023-02-15T00:32:35;102774.31;;;1.35;100.00
23321;BME280;33376;51.306;4.752;2023-02-15T00:35:00;102771.63;;;1.32;100.00
23321;BME280;33376;51.306;4.752;2023-02-15T00:37:25;102775.09;;;1.30;100.00
23321;BME280;33376;51.306;4.752;2023-02-15T00:39:50;102764.53;;;1.22;100.00
23321;BME280;33376;51.306;4.752;2023-02-15T00:42:16;102759.38;;;1.28;100.00
23321;BME280;33376;51.306;4.752;2023-02-15T00:44:41;102748.94;;;1.28;100.00
23321;BME280;33376;51.306;4.752;2023-02-15T00:47:06;102751.59;;;1.33;100.00
23321;BME280;33376;51.306;4.752;2023-02-15T00:49:31;102749.00;;;1.34;100.00
23321;BME280;33376;51.306;4.752;2023-02-15T00:51:56;102747.28;;;1.35;100.00
23321;BME280;33376;51.306;4.752;2023-02-15T00:54:22;102733.41;;;1.40;100.00
23321;BME280;33376;51.306;4.752;2023-02-15T00:56:47;102733.47;;;1.45;100.00
23321;BME280;33376;51.306;4.752;2023-02-15T00:59:12;102730.69;;;1.33;100.00
23321;BME280;33376;51.306;4.752;2023-02-15T01:01:37;102728.06;;;1.31;100.00
23321;BME280;33376;51.306;4.752;2023-02-15T01:04:03;102732.31;;;1.25;100.00
23321;BME280;33376;51.306;4.752;2023-02-15T01:06:28;102725.38;;;1.24;100.00
23321;BME280;33376;51.306;4.752;2023-02-15T01:08:53;102724.47;;;1.23;100.00
23321;BME280;33376;51.306;4.752;2023-02-15T01:11:20;102715.88;;;1.30;100.00
23321;BME280;33376;51.306;4.752;2023-02-15T01:13:49;102709.97;;;1.46;100.00
23321;BME280;33376;51.306;4.752;2023-02-15T01:16:15;102708.31;;;1.53;100.00
23321;BME280;33376;51.306;4.752;2023-02-15T01:18:40;102699.53;;;1.46;100.00
23321;BME280;33376;51.306;4.752;2023-02-15T01:21:12;102695.97;;;1.41;100.00
23321;BME280;33376;51.306;4.752;2023-02-15T01:23:38;102690.00;;;1.52;100.00
23321;BME280;33376;51.306;4.752;2023-02-15T01:26:03;102690.00;;;1.52;100.00
23321;BME280;33376;51.306;4.752;2023-02-15T01:28:29;102686.53;;;1.54;100.00
23321;BME280;33376;51.306;4.752;2023-02-15T01:30:54;102683.97;;;1.60;100.00
23321;BME280;33376;51.306;4.752;2023-02-15T01:33:19;102670.97;;;1.66;100.00
23321;BME280;33376;51.306;4.752;2023-02-15T01:35:45;102676.28;;;1.72;100.00
23321;BME280;33376;51.306;4.752;2023-02-15T01:38:11;102668.41;;;1.69;100.00
23321;BME280;33376;51.306;4.752;2023-02-15T01:40:36;102670.91;;;1.60;100.00
23321;BME280;33376;51.306;4.752;2023-02-15T01:43:07;102665.69;;;1.62;100.00
23321;BME280;33376;51.306;4.752;2023-02-15T01:45:33;102668.28;;;1.59;100.00
23321;BME280;33376;51.306;4.752;2023-02-15T01:48:03;102662.16;;;1.58;100.00
23321;BME280;33376;51.306;4.752;2023-02-15T01:50:32;102653.50;;;1.61;100.00
23321;BME280;33376;51.306;4.752;2023-02-15T01:53:06;102650.84;;;1.58;100.00
23321;BME280;33376;51.306;4.752;2023-02-15T01:55:36;102655.00;;;1.40;100.00
23321;BME280;33376;51.306;4.752;2023-02-15T01:58:03;102651.53;;;1.41;100.00
23321;BME280;33376;51.306;4.752;2023-02-15T02:00:29;102662.84;;;1.40;100.00
23321;BME280;33376;51.306;4.752;2023-02-15T02:02:54;102654.25;;;1.49;100.00
23321;BME280;33376;51.306;4.752;2023-02-15T02:05:20;102654.38;;;1.61;100.00
23321;BME280;33376;51.306;4.752;2023-02-15T02:07:45;102640.59;;;1.77;100.00
23321;BME280;33376;51.306;4.752;2023-02-15T02:10:13;102632.66;;;1.68;100.00
23321;BME280;33376;51.306;4.752;2023-02-15T02:12:39;102631.63;;;1.51;100.00
23321;BME280;33376;51.306;4.752;2023-02-15T02:15:06;102629.97;;;1.61;100.00
23321;BME280;33376;51.306;4.752;2023-02-15T02:33:25;102603.81;;;0.84;100.00
23321;BME280;33376;51.306;4.752;2023-02-15T02:35:57;102606.19;;;0.66;100.00
23321;BME280;33376;51.306;4.752;2023-02-15T02:38:27;102601.88;;;0.68;100.00
23321;BME280;33376;51.306;4.752;2023-02-15T02:40:56;102598.19;;;0.54;100.00
23321;BME280;33376;51.306;4.752;2023-02-15T02:43:37;102593.88;;;0.58;100.00
23321;BME280;33376;51.306;4.752;2023-02-15T02:48:58;102595.41;;;0.44;100.00
23321;BME280;33376;51.306;4.752;2023-02-15T02:51:23;102587.63;;;0.47;100.00
23321;BME280;33376;51.306;4.752;2023-02-15T02:53:53;102584.25;;;0.54;100.00
23321;BME280;33376;51.306;4.752;2023-02-15T02:56:30;102583.34;;;0.50;100.00
23321;BME280;33376;51.306;4.752;2023-02-15T02:58:59;102575.47;;;0.49;100.00
23321;BME280;33376;51.306;4.752;2023-02-15T03:03:53;102580.09;;;0.68;100.00
23321;BME280;33376;51.306;4.752;2023-02-15T03:07:21;102571.47;;;0.73;100.00
23321;BME280;33376;51.306;4.752;2023-02-15T03:09:18;102562.03;;;0.83;100.00
23321;BME280;33376;51.306;4.752;2023-02-15T03:11:46;102587.16;;;0.75;100.00
23321;BME280;33376;51.306;4.752;2023-02-15T03:14:12;102583.41;;;0.56;100.00
23321;BME280;33376;51.306;4.752;2023-02-15T03:16:39;102592.88;;;0.48;100.00
23321;BME280;33376;51.306;4.752;2023-02-15T03:19:06;102586.97;;;0.63;100.00
23321;BME280;33376;51.306;4.752;2023-02-15T03:24:06;102585.53;;;0.83;100.00
23321;BME280;33376;51.306;4.752;2023-02-15T03:26:32;102580.34;;;0.86;100.00
23321;BME280;33376;51.306;4.752;2023-02-15T03:28:59;102589.00;;;0.83;100.00
23321;BME280;33376;51.306;4.752;2023-02-15T03:31:26;102584.56;;;0.76;100.00
23321;BME280;33376;51.306;4.752;2023-02-15T03:33:55;102583.63;;;0.70;100.00
23321;BME280;33376;51.306;4.752;2023-02-15T03:39:59;102579.34;;;0.76;100.00
23321;BME280;33376;51.306;4.752;2023-02-15T03:44:29;102569.13;;;0.96;100.00
23321;BME280;33376;51.306;4.752;2023-02-15T03:47:04;102565.59;;;0.89;100.00
23321;BME280;33376;51.306;4.752;2023-02-15T03:52:08;102561.94;;;0.78;100.00
23321;BME280;33376;51.306;4.752;2023-02-15T03:54:34;102563.84;;;0.90;100.00
23321;BME280;33376;51.306;4.752;2023-02-15T03:59:57;102543.59;;;0.71;100.00
23321;BME280;33376;51.306;4.752;2023-02-15T04:02:52;102547.09;;;0.71;100.00
23321;BME280;33376;51.306;4.752;2023-02-15T04:05:20;102546.28;;;0.77;100.00
23321;BME280;33376;51.306;4.752;2023-02-15T04:07:45;102538.41;;;0.74;100.00
23321;BME280;33376;51.306;4.752;2023-02-15T04:10:11;102536.66;;;0.73;100.00
23321;BME280;33376;51.306;4.752;2023-02-15T04:12:54;102529.56;;;0.63;100.00
23321;BME280;33376;51.306;4.752;2023-02-15T04:15:21;102533.00;;;0.57;100.00
23321;BME280;33376;51.306;4.752;2023-02-15T04:18:04;102533.66;;;0.43;100.00
23321;BME280;33376;51.306;4.752;2023-02-15T04:20:30;102532.66;;;0.33;100.00
23321;BME280;33376;51.306;4.752;2023-02-15T04:23:13;102527.47;;;0.35;100.00
23321;BME280;33376;51.306;4.752;2023-02-15T04:25:57;102516.31;;;0.45;100.00
23321;BME280;33376;51.306;4.752;2023-02-15T04:28:22;102519.75;;;0.44;100.00
23321;BME280;33376;51.306;4.752;2023-02-15T04:30:48;102524.91;;;0.39;100.00
23321;BME280;33376;51.306;4.752;2023-02-15T04:33:13;102524.78;;;0.30;100.00
23321;BME280;33376;51.306;4.752;2023-02-15T04:35:42;102531.75;;;0.31;100.00
23321;BME280;33376;51.306;4.752;2023-02-15T04:38:08;102523.97;;;0.36;100.00
23321;BME280;33376;51.306;4.752;2023-02-15T04:40:35;102516.16;;;0.36;100.00
23321;BME280;33376;51.306;4.752;2023-02-15T04:43:01;102528.31;;;0.35;100.00
23321;BME280;33376;51.306;4.752;2023-02-15T04:45:28;102531.81;;;0.36;100.00
23321;BME280;33376;51.306;4.752;2023-02-15T04:47:53;102533.66;;;0.41;100.00
23321;BME280;33376;51.306;4.752;2023-02-15T04:50:18;102533.66;;;0.43;100.00
23321;BME280;33376;51.306;4.752;2023-02-15T04:52:44;102541.41;;;0.37;100.00
23321;BME280;33376;51.306;4.752;2023-02-15T04:55:09;102537.88;;;0.33;100.00
23321;BME280;33376;51.306;4.752;2023-02-15T04:57:34;102532.59;;;0.29;100.00
23321;BME280;33376;51.306;4.752;2023-02-15T04:59:59;102536.03;;;0.28;100.00
23321;BME280;33376;51.306;4.752;2023-02-15T05:02:25;102544.53;;;0.13;100.00
23321;BME280;33376;51.306;4.752;2023-02-15T05:04:51;102542.56;;;-0.02;100.00
23321;BME280;33376;51.306;4.752;2023-02-15T05:07:16;102532.19;;;0.02;100.00
23321;BME280;33376;51.306;4.752;2023-02-15T05:09:41;102537.34;;;-0.02;100.00
23321;BME280;33376;51.306;4.752;2023-02-15T05:12:06;102535.00;;;0.15;100.00
23321;BME280;33376;51.306;4.752;2023-02-15T05:14:32;102527.91;;;0.07;100.00
23321;BME280;33376;51.306;4.752;2023-02-15T05:16:57;102534.91;;;0.08;100.00
23321;BME280;33376;51.306;4.752;2023-02-15T05:19:25;102529.66;;;0.06;100.00
23321;BME280;33376;51.306;4.752;2023-02-15T05:21:51;102517.66;;;0.19;100.00
23321;BME280;33376;51.306;4.752;2023-02-15T05:24:16;102516.75;;;0.17;100.00
23321;BME280;33376;51.306;4.752;2023-02-15T05:27:00;102520.25;;;0.17;100.00
23321;BME280;33376;51.306;4.752;2023-02-15T05:29:43;102503.63;;;0.11;100.00
23321;BME280;33376;51.306;4.752;2023-02-15T05:32:09;102500.13;;;0.09;100.00
23321;BME280;33376;51.306;4.752;2023-02-15T05:34:35;102507.03;;;0.07;100.00
23321;BME280;33376;51.306;4.752;2023-02-15T05:37:00;102510.34;;;-0.07;100.00
23321;BME280;33376;51.306;4.752;2023-02-15T05:39:25;102513.53;;;-0.24;100.00
23321;BME280;33376;51.306;4.752;2023-02-15T05:41:51;102512.72;;;-0.20;100.00
23321;BME280;33376;51.306;4.752;2023-02-15T05:44:16;102511.78;;;-0.25;100.00
23321;BME280;33376;51.306;4.752;2023-02-15T05:46:41;102509.22;;;-0.21;100.00
23321;BME280;33376;51.306;4.752;2023-02-15T05:49:06;102504.03;;;-0.21;100.00
23321;BME280;33376;51.306;4.752;2023-02-15T05:51:31;102511.63;;;-0.34;100.00
23321;BME280;33376;51.306;4.752;2023-02-15T05:53:57;102507.34;;;-0.32;100.00
23321;BME280;33376;51.306;4.752;2023-02-15T05:56:22;102508.13;;;-0.36;100.00
23321;BME280;33376;51.306;4.752;2023-02-15T05:58:47;102514.25;;;-0.33;100.00
23321;BME280;33376;51.306;4.752;2023-02-15T06:01:17;102505.72;;;-0.26;100.00
23321;BME280;33376;51.306;4.752;2023-02-15T06:03:43;102503.25;;;-0.15;100.00
23321;BME280;33376;51.306;4.752;2023-02-15T06:06:09;102504.94;;;-0.17;100.00
23321;BME280;33376;51.306;4.752;2023-02-15T06:08:35;102511.97;;;-0.15;100.00
23321;BME280;33376;51.306;4.752;2023-02-15T06:11:01;102515.28;;;-0.25;100.00
23321;BME280;33376;51.306;4.752;2023-02-15T06:13:26;102510.94;;;-0.24;100.00
23321;BME280;33376;51.306;4.752;2023-02-15T06:15:51;102514.34;;;-0.28;100.00
23321;BME280;33376;51.306;4.752;2023-02-15T06:18:17;102521.97;;;-0.40;100.00
23321;BME280;33376;51.306;4.752;2023-02-15T06:20:42;102525.31;;;-0.47;100.00
23321;BME280;33376;51.306;4.752;2023-02-15T06:23:07;102524.31;;;-0.54;100.00
23321;BME280;33376;51.306;4.752;2023-02-15T06:25:32;102528.50;;;-0.63;100.00
23321;BME280;33376;51.306;4.752;2023-02-15T06:27:58;102569.97;;;-0.75;100.00
23321;BME280;33376;51.306;4.752;2023-02-15T06:30:23;102564.75;;;-0.75;100.00
23321;BME280;33376;51.306;4.752;2023-02-15T06:32:48;102555.94;;;-0.82;100.00
23321;BME280;33376;51.306;4.752;2023-02-15T06:35:13;102556.81;;;-0.80;100.00
23321;BME280;33376;51.306;4.752;2023-02-15T06:37:39;102554.22;;;-0.80;100.00
23321;BME280;33376;51.306;4.752;2023-02-15T06:40:04;102552.47;;;-0.81;100.00
23321;BME280;33376;51.306;4.752;2023-02-15T06:42:29;102549.84;;;-0.82;100.00
23321;BME280;33376;51.306;4.752;2023-02-15T06:44:55;102536.72;;;-0.88;100.00
23321;BME280;33376;51.306;4.752;2023-02-15T06:47:20;102544.44;;;-0.93;100.00
23321;BME280;33376;51.306;4.752;2023-02-15T06:49:45;102544.22;;;-1.03;100.00
23321;BME280;33376;51.306;4.752;2023-02-15T06:52:10;102544.22;;;-1.03;100.00
23321;BME280;33376;51.306;4.752;2023-02-15T06:54:36;102537.44;;;-0.95;100.00
23321;BME280;33376;51.306;4.752;2023-02-15T06:57:01;102534.88;;;-0.94;100.00
23321;BME280;33376;51.306;4.752;2023-02-15T06:59:26;102541.97;;;-0.85;100.00
23321;BME280;33376;51.306;4.752;2023-02-15T07:01:51;102538.59;;;-0.80;100.00
23321;BME280;33376;51.306;4.752;2023-02-15T07:04:17;102542.00;;;-0.84;100.00
23321;BME280;33376;51.306;4.752;2023-02-15T07:06:42;102537.59;;;-0.88;100.00
23321;BME280;33376;51.306;4.752;2023-02-15T07:09:07;102529.88;;;-0.83;100.00
23321;BME280;33376;51.306;4.752;2023-02-15T07:11:32;102525.69;;;-0.75;100.00
23321;BME280;33376;51.306;4.752;2023-02-15T07:14:16;102519.66;;;-0.71;100.00
23321;BME280;33376;51.306;4.752;2023-02-15T07:16:42;102521.66;;;-0.58;100.00
23321;BME280;33376;51.306;4.752;2023-02-15T07:19:07;102527.97;;;-0.44;100.00
23321;BME280;33376;51.306;4.752;2023-02-15T07:21:33;102525.75;;;-0.22;100.00
23321;BME280;33376;51.306;4.752;2023-02-15T07:23:58;102519.16;;;0.02;100.00
23321;BME280;33376;51.306;4.752;2023-02-15T07:26:24;102514.22;;;0.21;100.00
23321;BME280;33376;51.306;4.752;2023-02-15T07:28:49;102496.53;;;0.65;100.00
23321;BME280;33376;51.306;4.752;2023-02-15T07:31:14;102491.97;;;1.25;100.00
23321;BME280;33376;51.306;4.752;2023-02-15T07:33:40;102479.88;;;1.37;100.00
23321;BME280;33376;51.306;4.752;2023-02-15T07:36:05;102469.59;;;1.52;100.00
23321;BME280;33376;51.306;4.752;2023-02-15T07:38:34;102475.72;;;1.56;100.00
23321;BME280;33376;51.306;4.752;2023-02-15T07:41:04;102468.06;;;1.80;100.00
23321;BME280;33376;51.306;4.752;2023-02-15T07:43:29;102466.41;;;1.94;100.00
23321;BME280;33376;51.306;4.752;2023-02-15T07:46:16;102460.25;;;1.89;100.00
23321;BME280;33376;51.306;4.752;2023-02-15T07:48:41;102460.53;;;2.39;100.00
23321;BME280;33376;51.306;4.752;2023-02-15T07:51:07;102457.16;;;2.73;100.00
23321;BME280;33376;51.306;4.752;2023-02-15T07:53:33;102447.63;;;3.10;100.00
23321;BME280;33376;51.306;4.752;2023-02-15T07:55:59;102434.56;;;3.13;100.00
23321;BME280;33376;51.306;4.752;2023-02-15T07:58:25;102449.41;;;3.05;100.00
23321;BME280;33376;51.306;4.752;2023-02-15T08:01:10;102435.47;;;3.22;100.00
23321;BME280;33376;51.306;4.752;2023-02-15T08:03:35;102425.81;;;3.09;100.00
23321;BME280;33376;51.306;4.752;2023-02-15T08:06:00;102431.91;;;2.88;100.00
23321;BME280;33376;51.306;4.752;2023-02-15T08:08:26;102430.13;;;2.90;100.00
23321;BME280;33376;51.306;4.752;2023-02-15T08:11:05;102420.56;;;2.92;100.00
23321;BME280;33376;51.306;4.752;2023-02-15T08:13:50;102408.06;;;2.10;100.00
23321;BME280;33376;51.306;4.752;2023-02-15T08:18:53;102394.00;;;1.93;100.00
23321;BME280;33376;51.306;4.752;2023-02-15T08:21:19;102380.91;;;1.87;100.00
23321;BME280;33376;51.306;4.752;2023-02-15T08:23:44;102373.13;;;1.96;100.00
23321;BME280;33376;51.306;4.752;2023-02-15T08:26:10;102362.78;;;2.28;100.00
23321;BME280;33376;51.306;4.752;2023-02-15T08:28:35;102346.31;;;2.74;100.00
23321;BME280;33376;51.306;4.752;2023-02-15T08:31:07;102348.09;;;2.96;100.00
23321;BME280;33376;51.306;4.752;2023-02-15T08:33:33;102336.72;;;2.89;100.00
23321;BME280;33376;51.306;4.752;2023-02-15T08:36:03;102325.38;;;2.90;100.00
23321;BME280;33376;51.306;4.752;2023-02-15T08:38:28;102326.22;;;3.20;100.00
23321;BME280;33376;51.306;4.752;2023-02-15T08:40:53;102309.63;;;3.33;100.00
23321;BME280;33376;51.306;4.752;2023-02-15T08:43:19;102304.31;;;3.60;100.00
23321;BME280;33376;51.306;4.752;2023-02-15T08:45:44;102297.25;;;3.75;100.00
23321;BME280;33376;51.306;4.752;2023-02-15T08:48:09;102292.84;;;3.94;100.00
23321;BME280;33376;51.306;4.752;2023-02-15T08:50:34;102288.31;;;4.17;100.00
23321;BME280;33376;51.306;4.752;2023-02-15T08:52:59;102288.25;;;4.30;100.00
23321;BME280;33376;51.306;4.752;2023-02-15T08:55:25;102281.19;;;4.40;100.00
23321;BME280;33376;51.306;4.752;2023-02-15T08:57:50;102271.53;;;4.45;100.00
23321;BME280;33376;51.306;4.752;2023-02-15T09:00:15;102270.59;;;4.50;100.00
23321;BME280;33376;51.306;4.752;2023-02-15T09:02:41;102273.00;;;4.79;100.00
23321;BME280;33376;51.306;4.752;2023-02-15T09:05:06;102265.09;;;4.84;100.00
23321;BME280;33376;51.306;4.752;2023-02-15T09:07:31;102253.56;;;5.00;100.00
23321;BME280;33376;51.306;4.752;2023-02-15T09:09:56;102264.91;;;5.03;100.00
23321;BME280;33376;51.306;4.752;2023-02-15T09:12:22;102263.91;;;5.16;100.00
23321;BME280;33376;51.306;4.752;2023-02-15T09:14:47;102262.91;;;5.31;100.00
23321;BME280;33376;51.306;4.752;2023-02-15T09:17:12;102261.72;;;5.57;100.00
23321;BME280;33376;51.306;4.752;2023-02-15T09:19:37;102271.13;;;5.75;100.00
23321;BME280;33376;51.306;4.752;2023-02-15T09:22:02;102287.66;;;5.89;100.00
23321;BME280;33376;51.306;4.752;2023-02-15T09:24:31;102296.25;;;6.06;100.00
23321;BME280;33376;51.306;4.752;2023-02-15T09:26:56;102302.28;;;6.14;100.00
23321;BME280;33376;51.306;4.752;2023-02-15T09:29:22;102319.66;;;6.26;100.00
23321;BME280;33376;51.306;4.752;2023-02-15T09:31:48;102337.03;;;6.39;100.00
23321;BME280;33376;51.306;4.752;2023-02-15T09:34:15;102345.72;;;6.47;100.00
23321;BME280;33376;51.306;4.752;2023-02-15T09:36:41;102364.78;;;6.64;100.00
23321;BME280;33376;51.306;4.752;2023-02-15T10:02:57;102588.28;;;7.71;100.00
23321;BME280;33376;51.306;4.752;2023-02-15T10:08:11;102643.38;;;7.95;100.00
23321;BME280;33376;51.306;4.752;2023-02-15T10:14:05;102680.88;;;8.18;100.00
23321;BME280;33376;51.306;4.752;2023-02-15T10:16:38;102696.53;;;8.32;100.00
23321;BME280;33376;51.306;4.752;2023-02-15T10:19:13;102711.06;;;8.61;100.00
23321;BME280;33376;51.306;4.752;2023-02-15T10:24:17;102749.72;;;8.67;100.00
23321;BME280;33376;51.306;4.752;2023-02-15T10:26:47;102761.75;;;8.86;100.00
23321;BME280;33376;51.306;4.752;2023-02-15T10:36:58;102824.00;;;9.07;100.00
23321;BME280;33376;51.306;4.752;2023-02-15T10:39:29;102838.81;;;9.17;100.00
23321;BME280;33376;51.306;4.752;2023-02-15T10:42:48;102838.81;;;9.17;100.00
23321;BME280;33376;51.306;4.752;2023-02-15T10:44:57;102856.13;;;9.36;100.00
23321;BME280;33376;51.306;4.752;2023-02-15T10:47:49;102863.66;;;9.60;100.00
23321;BME280;33376;51.306;4.752;2023-02-15T10:53:08;102902.47;;;9.61;100.00
23321;BME280;33376;51.306;4.752;2023-02-15T10:58:13;102918.16;;;9.73;100.00
23321;BME280;33376;51.306;4.752;2023-02-15T11:00:47;102924.28;;;9.76;100.00
23321;BME280;33376;51.306;4.752;2023-02-15T11:03:32;102924.84;;;9.92;100.00
23321;BME280;33376;51.306;4.752;2023-02-15T11:08:29;102909.81;;;9.94;100.00
23321;BME280;33376;51.306;4.752;2023-02-15T11:11:00;102904.31;;;10.03;100.00
23321;BME280;33376;51.306;4.752;2023-02-15T11:13:27;102903.22;;;10.16;100.00
23321;BME280;33376;51.306;4.752;2023-02-15T11:16:05;102898.66;;;10.22;100.00
23321;BME280;33376;51.306;4.752;2023-02-15T11:18:34;102884.31;;;10.31;100.00
23321;BME280;33376;51.306;4.752;2023-02-15T11:21:03;102871.44;;;10.14;100.00
23321;BME280;33376;51.306;4.752;2023-02-15T11:23:29;102877.25;;;10.31;100.00
23321;BME280;33376;51.306;4.752;2023-02-15T11:26:00;102870.06;;;10.37;100.00
23321;BME280;33376;51.306;4.752;2023-02-15T11:28:31;102875.56;;;10.29;100.00
23321;BME280;33376;51.306;4.752;2023-02-15T11:31:00;102878.28;;;10.24;100.00
23321;BME280;33376;51.306;4.752;2023-02-15T11:33:28;102886.78;;;10.40;100.00
23321;BME280;33376;51.306;4.752;2023-02-15T11:36:00;102883.25;;;10.40;100.00
23321;BME280;33376;51.306;4.752;2023-02-15T11:38:31;102880.50;;;10.44;100.00
23321;BME280;33376;51.306;4.752;2023-02-15T11:41:03;102885.09;;;10.36;100.00
23321;BME280;33376;51.306;4.752;2023-02-15T11:45:56;102860.94;;;10.50;100.00
23321;BME280;33376;51.306;4.752;2023-02-15T11:48:21;102858.34;;;10.48;100.00
23321;BME280;33376;51.306;4.752;2023-02-15T11:50:47;102860.19;;;10.45;100.00
23321;BME280;33376;51.306;4.752;2023-02-15T11:53:17;102857.31;;;10.54;100.00
23321;BME280;33376;51.306;4.752;2023-02-15T11:55:43;102849.56;;;10.45;100.00
23321;BME280;33376;51.306;4.752;2023-02-15T11:58:14;102848.94;;;10.33;100.00
23321;BME280;33376;51.306;4.752;2023-02-15T12:00:42;102855.59;;;10.51;100.00
23321;BME280;33376;51.306;4.752;2023-02-15T12:03:15;102860.56;;;10.66;100.00
23321;BME280;33376;51.306;4.752;2023-02-15T12:05:44;102856.66;;;10.81;100.00
23321;BME280;33376;51.306;4.752;2023-02-15T12:08:17;102863.47;;;10.92;100.00
23321;BME280;33376;51.306;4.752;2023-02-15T12:10:55;102852.69;;;10.98;100.00
23321;BME280;33376;51.306;4.752;2023-02-15T12:13:22;102836.16;;;11.22;100.00
23321;BME280;33376;51.306;4.752;2023-02-15T12:15:50;102822.59;;;11.33;100.00
23321;BME280;33376;51.306;4.752;2023-02-15T12:21:00;102773.59;;;11.76;100.00
23321;BME280;33376;51.306;4.752;2023-02-15T12:23:28;102752.44;;;12.03;100.00
23321;BME280;33376;51.306;4.752;2023-02-15T12:25:54;102727.53;;;12.05;100.00
23321;BME280;33376;51.306;4.752;2023-02-15T12:28:25;102720.72;;;11.97;100.00
23321;BME280;33376;51.306;4.752;2023-02-15T12:30:52;102719.56;;;12.33;100.00
23321;BME280;33376;51.306;4.752;2023-02-15T12:33:28;102708.66;;;12.14;100.00
23321;BME280;33376;51.306;4.752;2023-02-15T12:38:26;102692.03;;;12.34;100.00
23321;BME280;33376;51.306;4.752;2023-02-15T12:40:59;102699.16;;;12.06;100.00
23321;BME280;33376;51.306;4.752;2023-02-15T12:43:26;102700.63;;;12.16;100.00
23321;BME280;33376;51.306;4.752;2023-02-15T12:45:52;102698.44;;;12.28;100.00
23321;BME280;33376;51.306;4.752;2023-02-15T12:48:18;102705.44;;;12.31;100.00
23321;BME280;33376;51.306;4.752;2023-02-15T12:50:44;102703.13;;;12.20;100.00
23321;BME280;33376;51.306;4.752;2023-02-15T12:53:14;102715.81;;;12.12;100.00
23321;BME280;33376;51.306;4.752;2023-02-15T12:55:50;102694.47;;;12.14;100.00
23321;BME280;33376;51.306;4.752;2023-02-15T12:58:17;102701.94;;;12.03;100.00
23321;BME280;33376;51.306;4.752;2023-02-15T13:00:43;102705.06;;;12.15;100.00
23321;BME280;33376;51.306;4.752;2023-02-15T13:03:19;102703.44;;;12.10;100.00
23321;BME280;33376;51.306;4.752;2023-02-15T13:05:46;102701.63;;;12.12;100.00
23321;BME280;33376;51.306;4.752;2023-02-15T13:10:51;102707.16;;;12.33;100.00
23321;BME280;33376;51.306;4.752;2023-02-15T13:13:18;102709.28;;;12.48;100.00
23321;BME280;33376;51.306;4.752;2023-02-15T13:15:46;102694.25;;;12.47;100.00
23321;BME280;33376;51.306;4.752;2023-02-15T13:18:15;102676.53;;;12.46;100.00
23321;BME280;33376;51.306;4.752;2023-02-15T13:20:41;102667.00;;;12.67;100.00
23321;BME280;33376;51.306;4.752;2023-02-15T13:23:26;102673.00;;;12.72;100.00
23321;BME280;33376;51.306;4.752;2023-02-15T13:25:52;102657.78;;;12.75;100.00
23321;BME280;33376;51.306;4.752;2023-02-15T13:28:20;102646.44;;;12.95;100.00
23321;BME280;33376;51.306;4.752;2023-02-15T13:30:47;102632.44;;;12.90;100.00
23321;BME280;33376;51.306;4.752;2023-02-15T13:33:21;102641.34;;;12.89;100.00
23321;BME280;33376;51.306;4.752;2023-02-15T13:41:04;102667.38;;;13.05;100.00
23321;BME280;33376;51.306;4.752;2023-02-15T13:43:40;102644.75;;;12.92;100.00
23321;BME280;33376;51.306;4.752;2023-02-15T13:51:41;102636.59;;;12.72;100.00
23321;BME280;33376;51.306;4.752;2023-02-15T13:54:25;102649.38;;;12.63;100.00
23321;BME280;33376;51.306;4.752;2023-02-15T14:05:22;102653.75;;;13.14;100.00
23321;BME280;33376;51.306;4.752;2023-02-15T14:07:55;102616.91;;;13.49;100.00
23321;BME280;33376;51.306;4.752;2023-02-15T14:15:26;102640.56;;;13.58;100.00
23321;BME280;33376;51.306;4.752;2023-02-15T14:25:55;102589.75;;;13.62;100.00
23321;BME280;33376;51.306;4.752;2023-02-15T14:28:33;102592.84;;;13.73;100.00
23321;BME280;33376;51.306;4.752;2023-02-15T14:31:02;102611.19;;;13.81;100.00
23321;BME280;33376;51.306;4.752;2023-02-15T14:33:39;102611.50;;;13.73;100.00
23321;BME280;33376;51.306;4.752;2023-02-15T14:36:08;102590.03;;;13.55;100.00
23321;BME280;33376;51.306;4.752;2023-02-15T14:38:39;102577.00;;;13.47;100.00
23321;BME280;33376;51.306;4.752;2023-02-15T14:41:13;102588.75;;;13.65;100.00
23321;BME280;33376;51.306;4.752;2023-02-15T14:46:27;102544.84;;;13.52;100.00
23321;BME280;33376;51.306;4.752;2023-02-15T14:48:56;102548.56;;;13.48;100.00
23321;BME280;33376;51.306;4.752;2023-02-15T14:54:56;102558.03;;;13.33;100.00
23321;BME280;33376;51.306;4.752;2023-02-15T14:59:36;102567.28;;;13.00;100.00
23321;BME280;33376;51.306;4.752;2023-02-15T15:04:32;102584.56;;;12.88;100.00
23321;BME280;33376;51.306;4.752;2023-02-15T15:06:59;102605.22;;;12.82;100.00
23321;BME280;33376;51.306;4.752;2023-02-15T15:09:27;102628.16;;;12.86;100.00